EBLG/LGG METAR and TAF weather

Enter ICAO airport designator
Station Type Date Time Source
EBLG METAR 2019/08/24 08:50 UTC NOAA

EBLG 240850Z 15005KT 110V180 CAVOK 23/12 Q1022 NOSIG


Station Type Date Time Source
EBLG Decoded METAR 2019/08/24 08:50 UTC NOAA

Station name not available
Aug 24, 2019 - 04:50 AM EDT / 2019.08.24 0850 UTC
Wind: from the SSE (150 degrees) at 6 MPH (5 KT) (direction variable):0
Visibility: greater than 7 mile(s):0
Temperature: 73 F (23 C)
Dew Point: 53 F (12 C)
Relative Humidity: 49%
Pressure (altimeter): 30.18 in. Hg (1022 hPa)
ob: EBLG 240850Z 15005KT 110V180 CAVOK 23/12 Q1022 NOSIG
cycle: 9

Station Type Date Time Source
EBLG TAF 2019/08/24 06:27 UTC NOAA

TAF EBLG 240500Z 2406/2512 12004KT CAVOK

Example: see airport list